sensor_id;sensor_type;location;lat;lon;timestamp;P1;durP1;ratioP1;P2;durP2;ratioP2
22752;SDS011;11543;43.144;24.684;2023-02-28T00:01:46;12.07;;;8.40;;
22752;SDS011;11543;43.144;24.684;2023-02-28T00:04:34;12.80;;;9.00;;
22752;SDS011;11543;43.144;24.684;2023-02-28T00:07:10;15.98;;;10.07;;
22752;SDS011;11543;43.144;24.684;2023-02-28T00:09:36;15.23;;;10.13;;
22752;SDS011;11543;43.144;24.684;2023-02-28T00:12:01;15.68;;;9.75;;
22752;SDS011;11543;43.144;24.684;2023-02-28T00:14:51;14.85;;;9.98;;
22752;SDS011;11543;43.144;24.684;2023-02-28T00:17:19;13.88;;;9.68;;
22752;SDS011;11543;43.144;24.684;2023-02-28T00:19:48;14.38;;;9.70;;
22752;SDS011;11543;43.144;24.684;2023-02-28T00:22:14;15.63;;;10.63;;
22752;SDS011;11543;43.144;24.684;2023-02-28T00:24:45;13.35;;;9.90;;
22752;SDS011;11543;43.144;24.684;2023-02-28T00:27:14;16.63;;;10.68;;
22752;SDS011;11543;43.144;24.684;2023-02-28T00:29:44;15.23;;;10.25;;
22752;SDS011;11543;43.144;24.684;2023-02-28T00:34:41;13.20;;;9.18;;
22752;SDS011;11543;43.144;24.684;2023-02-28T00:37:09;15.18;;;10.88;;
22752;SDS011;11543;43.144;24.684;2023-02-28T00:39:39;12.57;;;9.27;;
22752;SDS011;11543;43.144;24.684;2023-02-28T00:42:08;11.40;;;8.20;;
22752;SDS011;11543;43.144;24.684;2023-02-28T00:44:44;13.13;;;8.63;;
22752;SDS011;11543;43.144;24.684;2023-02-28T00:47:12;11.63;;;8.70;;
22752;SDS011;11543;43.144;24.684;2023-02-28T00:49:57;12.65;;;8.98;;
22752;SDS011;11543;43.144;24.684;2023-02-28T00:52:56;11.73;;;8.57;;
22752;SDS011;11543;43.144;24.684;2023-02-28T00:59:14;11.55;;;8.07;;
22752;SDS011;11543;43.144;24.684;2023-02-28T01:02:27;14.45;;;8.68;;
22752;SDS011;11543;43.144;24.684;2023-02-28T01:05:50;14.27;;;9.18;;
22752;SDS011;11543;43.144;24.684;2023-02-28T01:08:55;13.07;;;8.85;;
22752;SDS011;11543;43.144;24.684;2023-02-28T01:11:20;14.43;;;9.18;;
22752;SDS011;11543;43.144;24.684;2023-02-28T01:13:46;12.52;;;9.02;;
22752;SDS011;11543;43.144;24.684;2023-02-28T01:16:12;17.50;;;10.07;;
22752;SDS011;11543;43.144;24.684;2023-02-28T01:18:38;14.98;;;9.05;;
22752;SDS011;11543;43.144;24.684;2023-02-28T01:21:05;12.18;;;8.43;;
22752;SDS011;11543;43.144;24.684;2023-02-28T01:23:33;14.93;;;9.10;;
22752;SDS011;11543;43.144;24.684;2023-02-28T01:26:20;12.93;;;9.07;;
22752;SDS011;11543;43.144;24.684;2023-02-28T01:28:47;12.25;;;8.88;;
22752;SDS011;11543;43.144;24.684;2023-02-28T01:31:14;14.35;;;9.05;;
22752;SDS011;11543;43.144;24.684;2023-02-28T01:33:41;12.70;;;8.88;;
22752;SDS011;11543;43.144;24.684;2023-02-28T01:36:13;12.55;;;8.50;;
22752;SDS011;11543;43.144;24.684;2023-02-28T01:38:42;14.70;;;9.90;;
22752;SDS011;11543;43.144;24.684;2023-02-28T01:41:08;15.55;;;10.30;;
22752;SDS011;11543;43.144;24.684;2023-02-28T01:46:10;16.10;;;10.45;;
22752;SDS011;11543;43.144;24.684;2023-02-28T01:48:38;14.70;;;10.35;;
22752;SDS011;11543;43.144;24.684;2023-02-28T01:51:12;14.60;;;9.68;;
22752;SDS011;11543;43.144;24.684;2023-02-28T01:53:43;16.42;;;10.98;;
22752;SDS011;11543;43.144;24.684;2023-02-28T01:56:12;17.48;;;10.93;;
22752;SDS011;11543;43.144;24.684;2023-02-28T01:58:46;15.50;;;10.23;;
22752;SDS011;11543;43.144;24.684;2023-02-28T02:01:12;16.23;;;10.95;;
22752;SDS011;11543;43.144;24.684;2023-02-28T02:03:49;18.00;;;11.52;;
22752;SDS011;11543;43.144;24.684;2023-02-28T02:06:30;19.27;;;11.15;;
22752;SDS011;11543;43.144;24.684;2023-02-28T02:09:00;14.45;;;10.38;;
22752;SDS011;11543;43.144;24.684;2023-02-28T02:11:27;15.65;;;10.48;;
22752;SDS011;11543;43.144;24.684;2023-02-28T02:16:39;23.25;;;12.30;;
22752;SDS011;11543;43.144;24.684;2023-02-28T02:33:35;27.02;;;17.15;;
22752;SDS011;11543;43.144;24.684;2023-02-28T02:36:23;21.75;;;14.38;;
22752;SDS011;11543;43.144;24.684;2023-02-28T02:41:49;28.85;;;17.83;;
22752;SDS011;11543;43.144;24.684;2023-02-28T02:44:22;27.00;;;18.40;;
22752;SDS011;11543;43.144;24.684;2023-02-28T02:46:58;29.98;;;20.17;;
22752;SDS011;11543;43.144;24.684;2023-02-28T02:49:37;29.90;;;19.60;;
22752;SDS011;11543;43.144;24.684;2023-02-28T02:52:11;32.33;;;19.65;;
22752;SDS011;11543;43.144;24.684;2023-02-28T02:54:43;26.48;;;18.10;;
22752;SDS011;11543;43.144;24.684;2023-02-28T02:57:34;27.38;;;18.17;;
22752;SDS011;11543;43.144;24.684;2023-02-28T03:00:02;24.58;;;16.63;;
22752;SDS011;11543;43.144;24.684;2023-02-28T03:02:32;24.98;;;16.48;;
22752;SDS011;11543;43.144;24.684;2023-02-28T03:05:02;24.83;;;16.60;;
22752;SDS011;11543;43.144;24.684;2023-02-28T03:09:57;24.95;;;16.52;;
22752;SDS011;11543;43.144;24.684;2023-02-28T03:12:51;32.15;;;18.75;;
22752;SDS011;11543;43.144;24.684;2023-02-28T03:15:39;27.42;;;17.30;;
22752;SDS011;11543;43.144;24.684;2023-02-28T03:27:47;29.50;;;17.42;;
22752;SDS011;11543;43.144;24.684;2023-02-28T03:30:29;31.38;;;17.90;;
22752;SDS011;11543;43.144;24.684;2023-02-28T03:35:50;26.73;;;15.38;;
22752;SDS011;11543;43.144;24.684;2023-02-28T03:41:06;28.58;;;16.05;;
22752;SDS011;11543;43.144;24.684;2023-02-28T03:43:50;23.33;;;13.90;;
22752;SDS011;11543;43.144;24.684;2023-02-28T03:46:57;22.60;;;13.27;;
22752;SDS011;11543;43.144;24.684;2023-02-28T03:49:36;28.40;;;13.27;;
22752;SDS011;11543;43.144;24.684;2023-02-28T03:52:08;34.80;;;12.77;;
22752;SDS011;11543;43.144;24.684;2023-02-28T03:54:53;23.40;;;12.13;;
22752;SDS011;11543;43.144;24.684;2023-02-28T03:57:37;21.42;;;12.52;;
22752;SDS011;11543;43.144;24.684;2023-02-28T04:05:50;15.15;;;10.48;;
22752;SDS011;11543;43.144;24.684;2023-02-28T04:18:03;27.23;;;9.45;;
22752;SDS011;11543;43.144;24.684;2023-02-28T04:27:11;28.45;;;9.35;;
22752;SDS011;11543;43.144;24.684;2023-02-28T04:29:36;41.50;;;9.25;;
22752;SDS011;11543;43.144;24.684;2023-02-28T04:32:02;18.08;;;11.02;;
22752;SDS011;11543;43.144;24.684;2023-02-28T04:34:30;17.52;;;9.55;;
22752;SDS011;11543;43.144;24.684;2023-02-28T04:36:57;23.55;;;9.05;;
22752;SDS011;11543;43.144;24.684;2023-02-28T04:39:23;16.73;;;10.00;;
22752;SDS011;11543;43.144;24.684;2023-02-28T04:41:49;19.35;;;8.93;;
22752;SDS011;11543;43.144;24.684;2023-02-28T04:44:15;11.07;;;8.38;;
22752;SDS011;11543;43.144;24.684;2023-02-28T04:46:47;23.40;;;11.00;;
22752;SDS011;11543;43.144;24.684;2023-02-28T04:49:13;15.50;;;9.73;;
22752;SDS011;11543;43.144;24.684;2023-02-28T04:51:39;13.07;;;9.77;;
22752;SDS011;11543;43.144;24.684;2023-02-28T04:54:22;14.95;;;9.20;;
22752;SDS011;11543;43.144;24.684;2023-02-28T05:00:24;13.65;;;9.15;;
22752;SDS011;11543;43.144;24.684;2023-02-28T05:12:49;10.38;;;8.30;;
22752;SDS011;11543;43.144;24.684;2023-02-28T05:15:16;11.40;;;7.32;;
22752;SDS011;11543;43.144;24.684;2023-02-28T05:17:43;13.45;;;8.73;;
22752;SDS011;11543;43.144;24.684;2023-02-28T05:20:11;13.18;;;8.85;;
22752;SDS011;11543;43.144;24.684;2023-02-28T05:22:38;14.35;;;8.27;;
22752;SDS011;11543;43.144;24.684;2023-02-28T05:25:06;19.45;;;9.07;;
22752;SDS011;11543;43.144;24.684;2023-02-28T05:27:36;11.60;;;8.45;;
22752;SDS011;11543;43.144;24.684;2023-02-28T05:30:05;12.40;;;9.45;;
22752;SDS011;11543;43.144;24.684;2023-02-28T05:32:31;20.42;;;12.50;;
22752;SDS011;11543;43.144;24.684;2023-02-28T05:34:59;35.92;;;19.75;;
22752;SDS011;11543;43.144;24.684;2023-02-28T05:37:26;19.27;;;11.25;;
22752;SDS011;11543;43.144;24.684;2023-02-28T05:40:00;19.70;;;10.63;;
22752;SDS011;11543;43.144;24.684;2023-02-28T07:22:49;13.73;;;9.63;;
22752;SDS011;11543;43.144;24.684;2023-02-28T07:25:42;13.15;;;10.25;;
22752;SDS011;11543;43.144;24.684;2023-02-28T07:34:23;12.82;;;9.52;;
22752;SDS011;11543;43.144;24.684;2023-02-28T07:36:52;12.70;;;9.68;;
22752;SDS011;11543;43.144;24.684;2023-02-28T07:43:34;12.75;;;8.60;;
22752;SDS011;11543;43.144;24.684;2023-02-28T07:49:35;13.55;;;9.73;;
22752;SDS011;11543;43.144;24.684;2023-02-28T08:57:05;14.88;;;10.07;;
22752;SDS011;11543;43.144;24.684;2023-02-28T08:59:30;15.23;;;10.70;;
22752;SDS011;11543;43.144;24.684;2023-02-28T09:01:56;15.55;;;10.10;;
22752;SDS011;11543;43.144;24.684;2023-02-28T09:04:22;16.55;;;9.88;;
22752;SDS011;11543;43.144;24.684;2023-02-28T09:06:47;16.15;;;10.27;;
22752;SDS011;11543;43.144;24.684;2023-02-28T09:09:18;17.27;;;10.55;;
22752;SDS011;11543;43.144;24.684;2023-02-28T09:11:44;17.83;;;11.80;;
22752;SDS011;11543;43.144;24.684;2023-02-28T09:14:11;15.63;;;11.40;;
22752;SDS011;11543;43.144;24.684;2023-02-28T09:16:36;20.13;;;13.73;;
22752;SDS011;11543;43.144;24.684;2023-02-28T09:19:02;20.45;;;13.48;;
22752;SDS011;11543;43.144;24.684;2023-02-28T09:21:27;18.77;;;12.98;;
22752;SDS011;11543;43.144;24.684;2023-02-28T09:23:53;21.80;;;11.85;;
22752;SDS011;11543;43.144;24.684;2023-02-28T09:26:20;17.13;;;11.90;;
22752;SDS011;11543;43.144;24.684;2023-02-28T09:28:50;21.05;;;13.90;;
22752;SDS011;11543;43.144;24.684;2023-02-28T09:31:18;21.75;;;14.02;;
22752;SDS011;11543;43.144;24.684;2023-02-28T09:33:47;24.30;;;16.35;;
22752;SDS011;11543;43.144;24.684;2023-02-28T09:36:13;19.88;;;14.25;;
22752;SDS011;11543;43.144;24.684;2023-02-28T09:38:39;17.80;;;12.32;;
22752;SDS011;11543;43.144;24.684;2023-02-28T09:41:13;17.83;;;13.20;;
22752;SDS011;11543;43.144;24.684;2023-02-28T09:43:41;19.42;;;12.82;;
22752;SDS011;11543;43.144;24.684;2023-02-28T09:48:56;15.98;;;11.45;;
22752;SDS011;11543;43.144;24.684;2023-02-28T09:51:43;19.55;;;13.80;;
22752;SDS011;11543;43.144;24.684;2023-02-28T09:54:17;25.98;;;18.25;;
22752;SDS011;11543;43.144;24.684;2023-02-28T09:56:56;28.15;;;17.35;;
22752;SDS011;11543;43.144;24.684;2023-02-28T10:05:47;36.35;;;24.13;;
22752;SDS011;11543;43.144;24.684;2023-02-28T10:08:32;37.13;;;25.73;;
22752;SDS011;11543;43.144;24.684;2023-02-28T10:11:06;28.88;;;17.17;;
22752;SDS011;11543;43.144;24.684;2023-02-28T10:21:41;20.08;;;14.10;;
22752;SDS011;11543;43.144;24.684;2023-02-28T10:24:16;17.83;;;12.93;;
22752;SDS011;11543;43.144;24.684;2023-02-28T10:26:48;23.00;;;15.52;;
22752;SDS011;11543;43.144;24.684;2023-02-28T10:29:13;26.75;;;15.63;;
22752;SDS011;11543;43.144;24.684;2023-02-28T10:31:40;21.15;;;14.68;;
22752;SDS011;11543;43.144;24.684;2023-02-28T10:34:07;22.85;;;16.30;;
22752;SDS011;11543;43.144;24.684;2023-02-28T10:36:36;22.42;;;15.23;;
22752;SDS011;11543;43.144;24.684;2023-02-28T10:39:03;21.75;;;15.95;;
22752;SDS011;11543;43.144;24.684;2023-02-28T10:41:59;95.45;;;43.67;;
22752;SDS011;11543;43.144;24.684;2023-02-28T10:44:24;29.35;;;18.08;;
22752;SDS011;11543;43.144;24.684;2023-02-28T10:46:50;26.63;;;16.60;;
22752;SDS011;11543;43.144;24.684;2023-02-28T10:49:23;22.10;;;14.48;;
22752;SDS011;11543;43.144;24.684;2023-02-28T10:51:52;23.13;;;15.02;;
22752;SDS011;11543;43.144;24.684;2023-02-28T10:54:24;48.38;;;26.08;;
22752;SDS011;11543;43.144;24.684;2023-02-28T10:59:34;27.02;;;17.73;;
22752;SDS011;11543;43.144;24.684;2023-02-28T11:01:59;20.92;;;14.27;;
22752;SDS011;11543;43.144;24.684;2023-02-28T11:09:44;21.83;;;13.13;;
22752;SDS011;11543;43.144;24.684;2023-02-28T11:12:20;22.60;;;14.10;;
22752;SDS011;11543;43.144;24.684;2023-02-28T11:15:04;22.90;;;15.50;;
22752;SDS011;11543;43.144;24.684;2023-02-28T11:17:32;19.70;;;13.57;;
22752;SDS011;11543;43.144;24.684;2023-02-28T11:20:02;24.75;;;15.50;;
22752;SDS011;11543;43.144;24.684;2023-02-28T11:22:32;19.55;;;13.18;;
22752;SDS011;11543;43.144;24.684;2023-02-28T11:25:07;19.92;;;14.55;;
22752;SDS011;11543;43.144;24.684;2023-02-28T11:31:02;39.50;;;24.25;;
22752;SDS011;11543;43.144;24.684;2023-02-28T11:33:50;39.40;;;24.23;;
22752;SDS011;11543;43.144;24.684;2023-02-28T11:38:43;28.02;;;17.63;;
22752;SDS011;11543;43.144;24.684;2023-02-28T11:44:04;29.63;;;17.73;;
22752;SDS011;11543;43.144;24.684;2023-02-28T11:46:50;31.17;;;18.95;;
22752;SDS011;11543;43.144;24.684;2023-02-28T11:56:47;22.60;;;15.35;;
22752;SDS011;11543;43.144;24.684;2023-02-28T12:10:21;22.55;;;13.95;;
22752;SDS011;11543;43.144;24.684;2023-02-28T12:26:43;21.60;;;14.43;;
22752;SDS011;11543;43.144;24.684;2023-02-28T12:29:17;23.85;;;14.50;;
22752;SDS011;11543;43.144;24.684;2023-02-28T12:34:52;19.85;;;13.40;;
22752;SDS011;11543;43.144;24.684;2023-02-28T12:40:12;18.83;;;12.25;;
22752;SDS011;11543;43.144;24.684;2023-02-28T12:42:44;20.00;;;13.85;;
22752;SDS011;11543;43.144;24.684;2023-02-28T12:45:17;32.63;;;18.90;;
22752;SDS011;11543;43.144;24.684;2023-02-28T12:47:50;28.05;;;17.00;;
22752;SDS011;11543;43.144;24.684;2023-02-28T12:50:25;19.95;;;12.65;;
22752;SDS011;11543;43.144;24.684;2023-02-28T12:59:03;18.40;;;11.80;;
22752;SDS011;11543;43.144;24.684;2023-02-28T13:07:20;22.13;;;12.52;;
22752;SDS011;11543;43.144;24.684;2023-02-28T13:09:28;17.92;;;12.70;;
22752;SDS011;11543;43.144;24.684;2023-02-28T13:11:54;20.67;;;12.68;;
22752;SDS011;11543;43.144;24.684;2023-02-28T13:27:58;23.15;;;14.02;;
22752;SDS011;11543;43.144;24.684;2023-02-28T13:36:50;20.08;;;13.55;;
22752;SDS011;11543;43.144;24.684;2023-02-28T13:39:51;18.98;;;12.15;;
22752;SDS011;11543;43.144;24.684;2023-02-28T13:45:29;18.80;;;12.25;;
22752;SDS011;11543;43.144;24.684;2023-02-28T14:06:53;14.55;;;9.65;;
22752;SDS011;11543;43.144;24.684;2023-02-28T14:09:34;17.13;;;10.68;;
22752;SDS011;11543;43.144;24.684;2023-02-28T14:18:40;20.35;;;12.07;;
22752;SDS011;11543;43.144;24.684;2023-02-28T14:21:14;16.13;;;11.25;;
22752;SDS011;11543;43.144;24.684;2023-02-28T14:26:37;13.75;;;9.60;;
22752;SDS011;11543;43.144;24.684;2023-02-28T14:32:48;15.15;;;9.77;;
22752;SDS011;11543;43.144;24.684;2023-02-28T14:35:22;16.77;;;11.30;;
22752;SDS011;11543;43.144;24.684;2023-02-28T14:37:52;20.92;;;13.32;;
22752;SDS011;11543;43.144;24.684;2023-02-28T14:40:35;42.10;;;24.52;;
22752;SDS011;11543;43.144;24.684;2023-02-28T14:43:04;24.45;;;16.42;;
22752;SDS011;11543;43.144;24.684;2023-02-28T14:45:32;19.40;;;12.48;;
22752;SDS011;11543;43.144;24.684;2023-02-28T14:48:01;30.42;;;19.23;;
22752;SDS011;11543;43.144;24.684;2023-02-28T14:50:30;23.88;;;15.82;;
22752;SDS011;11543;43.144;24.684;2023-02-28T14:53:00;38.63;;;22.63;;
22752;SDS011;11543;43.144;24.684;2023-02-28T14:55:31;18.60;;;12.32;;
22752;SDS011;11543;43.144;24.684;2023-02-28T14:58:02;24.77;;;15.18;;
22752;SDS011;11543;43.144;24.684;2023-02-28T15:00:47;20.67;;;12.77;;
22752;SDS011;11543;43.144;24.684;2023-02-28T15:03:37;16.30;;;11.23;;
22752;SDS011;11543;43.144;24.684;2023-02-28T15:06:14;17.77;;;11.57;;
22752;SDS011;11543;43.144;24.684;2023-02-28T15:08:42;16.92;;;11.38;;
22752;SDS011;11543;43.144;24.684;2023-02-28T15:11:18;17.85;;;11.73;;
22752;SDS011;11543;43.144;24.684;2023-02-28T15:13:50;22.15;;;14.85;;
22752;SDS011;11543;43.144;24.684;2023-02-28T15:16:22;22.33;;;14.53;;
22752;SDS011;11543;43.144;24.684;2023-02-28T15:18:56;18.55;;;12.43;;
22752;SDS011;11543;43.144;24.684;2023-02-28T15:21:26;19.13;;;12.63;;
22752;SDS011;11543;43.144;24.684;2023-02-28T15:24:10;19.38;;;12.70;;
22752;SDS011;11543;43.144;24.684;2023-02-28T15:27:00;18.85;;;12.73;;
22752;SDS011;11543;43.144;24.684;2023-02-28T15:29:30;20.27;;;12.65;;
22752;SDS011;11543;43.144;24.684;2023-02-28T15:32:06;18.95;;;12.15;;
22752;SDS011;11543;43.144;24.684;2023-02-28T15:34:40;20.70;;;14.20;;
22752;SDS011;11543;43.144;24.684;2023-02-28T15:40:27;20.27;;;13.20;;
22752;SDS011;11543;43.144;24.684;2023-02-28T15:43:00;20.88;;;13.30;;
22752;SDS011;11543;43.144;24.684;2023-02-28T15:45:34;23.92;;;14.75;;
22752;SDS011;11543;43.144;24.684;2023-02-28T15:48:04;20.38;;;13.88;;
22752;SDS011;11543;43.144;24.684;2023-02-28T15:53:56;22.25;;;13.90;;
22752;SDS011;11543;43.144;24.684;2023-02-28T15:56:28;20.73;;;14.00;;
22752;SDS011;11543;43.144;24.684;2023-02-28T15:59:15;20.15;;;13.45;;
22752;SDS011;11543;43.144;24.684;2023-02-28T16:01:44;18.80;;;12.57;;
22752;SDS011;11543;43.144;24.684;2023-02-28T16:04:14;18.60;;;12.75;;
22752;SDS011;11543;43.144;24.684;2023-02-28T16:09:22;23.65;;;16.60;;
22752;SDS011;11543;43.144;24.684;2023-02-28T16:11:49;21.92;;;15.32;;
22752;SDS011;11543;43.144;24.684;2023-02-28T16:14:22;24.77;;;16.95;;
22752;SDS011;11543;43.144;24.684;2023-02-28T16:16:51;25.20;;;17.30;;
22752;SDS011;11543;43.144;24.684;2023-02-28T16:19:20;35.83;;;24.38;;
22752;SDS011;11543;43.144;24.684;2023-02-28T16:21:46;26.20;;;18.73;;
22752;SDS011;11543;43.144;24.684;2023-02-28T16:24:11;32.20;;;21.33;;
22752;SDS011;11543;43.144;24.684;2023-02-28T16:26:38;18.75;;;13.07;;
22752;SDS011;11543;43.144;24.684;2023-02-28T16:29:13;20.63;;;13.77;;
22752;SDS011;11543;43.144;24.684;2023-02-28T16:31:44;27.15;;;19.17;;
22752;SDS011;11543;43.144;24.684;2023-02-28T16:34:10;32.45;;;24.05;;
22752;SDS011;11543;43.144;24.684;2023-02-28T16:36:35;28.48;;;21.73;;
22752;SDS011;11543;43.144;24.684;2023-02-28T16:39:01;25.73;;;17.95;;
22752;SDS011;11543;43.144;24.684;2023-02-28T16:41:27;22.63;;;16.55;;
22752;SDS011;11543;43.144;24.684;2023-02-28T16:43:54;21.30;;;16.38;;
22752;SDS011;11543;43.144;24.684;2023-02-28T16:46:26;24.58;;;17.23;;
22752;SDS011;11543;43.144;24.684;2023-02-28T16:48:55;25.90;;;18.23;;
22752;SDS011;11543;43.144;24.684;2023-02-28T16:51:20;23.88;;;17.50;;
22752;SDS011;11543;43.144;24.684;2023-02-28T16:53:48;23.08;;;15.52;;
22752;SDS011;11543;43.144;24.684;2023-02-28T16:56:15;25.98;;;18.60;;
22752;SDS011;11543;43.144;24.684;2023-02-28T16:58:49;27.85;;;18.25;;
22752;SDS011;11543;43.144;24.684;2023-02-28T17:01:16;24.35;;;16.60;;
22752;SDS011;11543;43.144;24.684;2023-02-28T17:03:46;24.27;;;16.08;;
22752;SDS011;11543;43.144;24.684;2023-02-28T17:06:16;28.05;;;18.60;;
22752;SDS011;11543;43.144;24.684;2023-02-28T17:08:44;29.60;;;20.08;;
22752;SDS011;11543;43.144;24.684;2023-02-28T17:11:11;31.30;;;20.73;;
22752;SDS011;11543;43.144;24.684;2023-02-28T17:13:37;30.38;;;20.65;;
22752;SDS011;11543;43.144;24.684;2023-02-28T17:16:02;24.45;;;17.60;;
22752;SDS011;11543;43.144;24.684;2023-02-28T17:18:28;26.20;;;18.23;;
22752;SDS011;11543;43.144;24.684;2023-02-28T17:20:59;22.63;;;15.35;;
22752;SDS011;11543;43.144;24.684;2023-02-28T17:23:25;18.80;;;13.32;;
22752;SDS011;11543;43.144;24.684;2023-02-28T17:25:50;19.00;;;13.20;;
22752;SDS011;11543;43.144;24.684;2023-02-28T17:28:22;16.45;;;11.45;;
22752;SDS011;11543;43.144;24.684;2023-02-28T17:30:47;17.13;;;10.68;;
22752;SDS011;11543;43.144;24.684;2023-02-28T17:33:13;16.00;;;10.95;;
22752;SDS011;11543;43.144;24.684;2023-02-28T17:35:40;15.65;;;10.70;;
22752;SDS011;11543;43.144;24.684;2023-02-28T17:38:10;15.35;;;10.60;;
22752;SDS011;11543;43.144;24.684;2023-02-28T17:40:41;19.73;;;12.32;;
22752;SDS011;11543;43.144;24.684;2023-02-28T17:43:06;15.57;;;10.95;;
22752;SDS011;11543;43.144;24.684;2023-02-28T17:45:32;17.00;;;11.25;;
22752;SDS011;11543;43.144;24.684;2023-02-28T17:47:59;17.88;;;11.95;;
22752;SDS011;11543;43.144;24.684;2023-02-28T17:50:26;17.02;;;11.45;;
22752;SDS011;11543;43.144;24.684;2023-02-28T17:52:52;18.73;;;12.25;;
22752;SDS011;11543;43.144;24.684;2023-02-28T17:55:21;17.17;;;11.27;;
22752;SDS011;11543;43.144;24.684;2023-02-28T17:57:46;16.50;;;11.15;;
22752;SDS011;11543;43.144;24.684;2023-02-28T18:00:13;16.67;;;10.93;;
22752;SDS011;11543;43.144;24.684;2023-02-28T18:02:40;16.88;;;11.13;;
22752;SDS011;11543;43.144;24.684;2023-02-28T18:05:06;27.90;;;12.80;;
22752;SDS011;11543;43.144;24.684;2023-02-28T18:07:33;21.65;;;11.07;;
22752;SDS011;11543;43.144;24.684;2023-02-28T18:09:59;25.90;;;11.70;;
22752;SDS011;11543;43.144;24.684;2023-02-28T18:12:25;15.30;;;10.40;;
22752;SDS011;11543;43.144;24.684;2023-02-28T18:14:51;18.38;;;11.25;;
22752;SDS011;11543;43.144;24.684;2023-02-28T18:17:17;19.55;;;11.48;;
22752;SDS011;11543;43.144;24.684;2023-02-28T18:19:42;21.85;;;12.18;;
22752;SDS011;11543;43.144;24.684;2023-02-28T18:22:08;35.78;;;13.02;;
22752;SDS011;11543;43.144;24.684;2023-02-28T18:24:33;20.75;;;12.75;;
22752;SDS011;11543;43.144;24.684;2023-02-28T18:27:00;34.97;;;11.95;;
22752;SDS011;11543;43.144;24.684;2023-02-28T18:29:26;27.08;;;12.38;;
22752;SDS011;11543;43.144;24.684;2023-02-28T18:31:55;26.25;;;12.02;;
22752;SDS011;11543;43.144;24.684;2023-02-28T18:34:21;34.17;;;12.10;;
22752;SDS011;11543;43.144;24.684;2023-02-28T18:36:48;25.52;;;12.90;;
22752;SDS011;11543;43.144;24.684;2023-02-28T18:39:15;43.08;;;12.90;;
22752;SDS011;11543;43.144;24.684;2023-02-28T18:41:41;23.95;;;11.43;;
22752;SDS011;11543;43.144;24.684;2023-02-28T18:44:07;29.63;;;11.35;;
22752;SDS011;11543;43.144;24.684;2023-02-28T18:46:33;19.70;;;11.10;;
22752;SDS011;11543;43.144;24.684;2023-02-28T18:48:59;18.20;;;11.05;;
22752;SDS011;11543;43.144;24.684;2023-02-28T18:51:25;20.92;;;11.13;;
22752;SDS011;11543;43.144;24.684;2023-02-28T18:53:52;15.90;;;10.80;;
22752;SDS011;11543;43.144;24.684;2023-02-28T18:56:18;17.85;;;10.55;;
22752;SDS011;11543;43.144;24.684;2023-02-28T18:58:45;16.35;;;11.27;;
22752;SDS011;11543;43.144;24.684;2023-02-28T19:01:15;18.38;;;12.10;;
22752;SDS011;11543;43.144;24.684;2023-02-28T19:03:46;18.25;;;10.57;;
22752;SDS011;11543;43.144;24.684;2023-02-28T19:06:12;17.63;;;10.85;;
22752;SDS011;11543;43.144;24.684;2023-02-28T19:08:38;20.10;;;12.52;;
22752;SDS011;11543;43.144;24.684;2023-02-28T19:11:13;20.60;;;13.10;;
22752;SDS011;11543;43.144;24.684;2023-02-28T19:13:42;30.35;;;18.02;;
22752;SDS011;11543;43.144;24.684;2023-02-28T19:16:13;23.17;;;15.25;;
22752;SDS011;11543;43.144;24.684;2023-02-28T19:18:39;31.50;;;15.57;;
22752;SDS011;11543;43.144;24.684;2023-02-28T19:21:06;28.05;;;16.95;;
22752;SDS011;11543;43.144;24.684;2023-02-28T19:23:35;35.10;;;22.42;;
22752;SDS011;11543;43.144;24.684;2023-02-28T19:26:08;36.03;;;21.85;;
22752;SDS011;11543;43.144;24.684;2023-02-28T19:28:35;39.47;;;25.10;;
22752;SDS011;11543;43.144;24.684;2023-02-28T19:31:01;32.70;;;20.13;;
22752;SDS011;11543;43.144;24.684;2023-02-28T19:33:26;36.30;;;21.83;;
22752;SDS011;11543;43.144;24.684;2023-02-28T19:35:52;26.02;;;16.85;;
22752;SDS011;11543;43.144;24.684;2023-02-28T19:38:17;22.65;;;14.95;;
22752;SDS011;11543;43.144;24.684;2023-02-28T19:40:43;32.35;;;19.88;;
22752;SDS011;11543;43.144;24.684;2023-02-28T19:43:09;21.73;;;14.18;;
22752;SDS011;11543;43.144;24.684;2023-02-28T19:45:35;20.73;;;12.65;;
22752;SDS011;11543;43.144;24.684;2023-02-28T19:48:02;18.17;;;11.35;;
22752;SDS011;11543;43.144;24.684;2023-02-28T19:50:28;19.17;;;12.07;;
22752;SDS011;11543;43.144;24.684;2023-02-28T19:52:54;18.83;;;12.15;;
22752;SDS011;11543;43.144;24.684;2023-02-28T19:55:20;19.45;;;12.30;;
22752;SDS011;11543;43.144;24.684;2023-02-28T19:57:48;17.17;;;11.88;;
22752;SDS011;11543;43.144;24.684;2023-02-28T20:00:14;19.60;;;12.65;;
22752;SDS011;11543;43.144;24.684;2023-02-28T20:02:41;21.60;;;13.65;;
22752;SDS011;11543;43.144;24.684;2023-02-28T20:05:07;19.70;;;12.93;;
22752;SDS011;11543;43.144;24.684;2023-02-28T20:07:34;20.05;;;13.00;;
22752;SDS011;11543;43.144;24.684;2023-02-28T20:10:00;20.45;;;12.77;;
22752;SDS011;11543;43.144;24.684;2023-02-28T20:12:25;19.25;;;13.27;;
22752;SDS011;11543;43.144;24.684;2023-02-28T20:14:52;17.83;;;12.27;;
22752;SDS011;11543;43.144;24.684;2023-02-28T20:17:20;18.73;;;12.32;;
22752;SDS011;11543;43.144;24.684;2023-02-28T20:19:46;19.42;;;13.45;;
22752;SDS011;11543;43.144;24.684;2023-02-28T20:22:11;21.05;;;13.50;;
22752;SDS011;11543;43.144;24.684;2023-02-28T20:24:37;17.83;;;12.40;;
22752;SDS011;11543;43.144;24.684;2023-02-28T20:27:02;16.88;;;11.88;;
22752;SDS011;11543;43.144;24.684;2023-02-28T20:29:29;16.40;;;11.65;;
22752;SDS011;11543;43.144;24.684;2023-02-28T20:31:55;16.48;;;11.23;;
22752;SDS011;11543;43.144;24.684;2023-02-28T20:34:22;15.68;;;10.85;;
22752;SDS011;11543;43.144;24.684;2023-02-28T20:36:49;16.17;;;11.32;;
22752;SDS011;11543;43.144;24.684;2023-02-28T20:39:15;15.93;;;10.48;;
22752;SDS011;11543;43.144;24.684;2023-02-28T20:41:41;13.85;;;10.43;;
22752;SDS011;11543;43.144;24.684;2023-02-28T20:44:07;13.07;;;10.02;;
22752;SDS011;11543;43.144;24.684;2023-02-28T20:46:36;17.23;;;10.98;;
22752;SDS011;11543;43.144;24.684;2023-02-28T20:49:02;19.90;;;12.02;;
22752;SDS011;11543;43.144;24.684;2023-02-28T20:51:27;21.45;;;13.30;;
22752;SDS011;11543;43.144;24.684;2023-02-28T20:53:53;17.05;;;11.73;;
22752;SDS011;11543;43.144;24.684;2023-02-28T20:56:22;19.30;;;12.77;;
22752;SDS011;11543;43.144;24.684;2023-02-28T20:58:50;17.33;;;11.65;;
22752;SDS011;11543;43.144;24.684;2023-02-28T21:01:18;24.05;;;12.43;;
22752;SDS011;11543;43.144;24.684;2023-02-28T21:03:51;19.77;;;11.63;;
22752;SDS011;11543;43.144;24.684;2023-02-28T21:06:18;16.75;;;11.35;;
22752;SDS011;11543;43.144;24.684;2023-02-28T21:08:45;17.90;;;11.07;;
22752;SDS011;11543;43.144;24.684;2023-02-28T21:11:22;22.77;;;14.35;;
22752;SDS011;11543;43.144;24.684;2023-02-28T21:13:53;20.75;;;13.57;;
22752;SDS011;11543;43.144;24.684;2023-02-28T21:16:23;24.58;;;14.77;;
22752;SDS011;11543;43.144;24.684;2023-02-28T21:18:50;20.33;;;12.77;;
22752;SDS011;11543;43.144;24.684;2023-02-28T21:21:19;31.27;;;19.75;;